createdAt,value
2023-02-03T00:02:19.677Z,0.77
2023-02-03T00:05:43.676Z,0.85
2023-02-03T00:09:05.526Z,1.15
2023-02-03T00:12:27.296Z,2.05
2023-02-03T00:15:48.979Z,1.67
2023-02-03T00:19:10.606Z,1.63
2023-02-03T00:22:34.035Z,1.13
2023-02-03T00:25:56.166Z,1.40
2023-02-03T00:29:18.715Z,1.10
2023-02-03T00:32:40.870Z,1.23
2023-02-03T00:36:06.604Z,1.30
2023-02-03T00:39:29.839Z,1.58
2023-02-03T00:42:52.140Z,2.28
2023-02-03T00:46:14.684Z,2.20
2023-02-03T00:49:36.643Z,1.52
2023-02-03T00:52:58.862Z,1.63
2023-02-03T00:56:22.366Z,2.35
2023-02-03T00:59:44.475Z,3.67
2023-02-03T01:03:06.547Z,2.38
2023-02-03T01:06:29.155Z,2.50
2023-02-03T01:09:51.036Z,1.48
2023-02-03T01:13:14.483Z,1.48
2023-02-03T01:16:38.391Z,1.02
2023-02-03T01:20:00.278Z,1.10
2023-02-03T01:23:22.056Z,1.17
2023-02-03T01:26:44.060Z,1.30
2023-02-03T01:30:07.839Z,1.35
2023-02-03T01:33:29.653Z,1.60
2023-02-03T01:36:51.733Z,1.50
2023-02-03T01:40:14.540Z,1.30
2023-02-03T01:43:39.690Z,1.40
2023-02-03T01:47:03.935Z,0.90
2023-02-03T01:50:29.865Z,0.90
2023-02-03T01:53:54.132Z,1.35
2023-02-03T01:57:23.059Z,1.13
2023-02-03T02:00:45.293Z,1.20
2023-02-03T02:04:09.794Z,0.90
2023-02-03T02:07:32.596Z,0.90
2023-02-03T02:10:54.936Z,0.70
2023-02-03T02:14:16.799Z,0.75
2023-02-03T02:17:57.407Z,0.75
2023-02-03T02:21:47.969Z,0.95
2023-02-03T02:25:30.208Z,0.70
2023-02-03T02:29:10.640Z,0.70
2023-02-03T02:32:55.058Z,0.50
2023-02-03T02:36:28.329Z,1.00
2023-02-03T02:39:58.459Z,0.68
2023-02-03T02:43:24.429Z,0.63
2023-02-03T02:46:50.368Z,0.68
2023-02-03T02:50:21.067Z,0.70
2023-02-03T02:53:50.527Z,0.50
2023-02-03T02:57:14.468Z,0.80
2023-02-03T03:00:37.732Z,0.88
2023-02-03T03:04:01.696Z,1.05
2023-02-03T03:07:29.164Z,0.90
2023-02-03T03:10:51.874Z,1.00
2023-02-03T03:14:17.317Z,0.45
2023-02-03T03:17:42.529Z,0.68
2023-02-03T03:21:07.145Z,0.45
2023-02-03T03:24:33.913Z,0.50
2023-02-03T03:28:00.301Z,0.40
2023-02-03T03:31:22.351Z,1.17
2023-02-03T03:34:47.566Z,0.70
2023-02-03T03:38:15.576Z,0.85
2023-02-03T03:41:46.819Z,0.57
2023-02-03T03:45:13.291Z,0.82
2023-02-03T03:48:39.253Z,1.23
2023-02-03T03:52:04.819Z,0.60
2023-02-03T03:55:30.034Z,0.65
2023-02-03T03:58:54.605Z,0.90
2023-02-03T04:02:19.258Z,0.82
2023-02-03T04:05:42.412Z,0.80
2023-02-03T04:09:06.926Z,0.85
2023-02-03T04:12:28.609Z,0.80
2023-02-03T04:15:51.719Z,0.95
2023-02-03T04:19:13.807Z,0.75
2023-02-03T04:22:35.650Z,1.45
2023-02-03T04:25:57.422Z,1.40
2023-02-03T04:29:18.911Z,1.20
2023-02-03T04:32:42.545Z,1.02
2023-02-03T04:36:04.706Z,1.13
2023-02-03T04:39:26.438Z,1.02
2023-02-03T04:42:47.970Z,1.30
2023-02-03T04:46:10.606Z,1.10
2023-02-03T04:49:34.386Z,1.40
2023-02-03T04:52:55.970Z,1.00
2023-02-03T04:56:17.672Z,1.63
2023-02-03T04:59:39.506Z,1.80
2023-02-03T05:03:02.018Z,1.95
2023-02-03T05:06:27.010Z,1.33
2023-02-03T05:09:48.844Z,1.63
2023-02-03T05:13:10.526Z,1.75
2023-02-03T05:16:32.328Z,1.55
2023-02-03T05:19:54.096Z,1.73
2023-02-03T05:23:17.661Z,2.08
2023-02-03T05:26:39.843Z,3.13
2023-02-03T05:30:01.917Z,1.83
2023-02-03T05:33:23.953Z,1.45
2023-02-03T05:36:45.827Z,2.10
2023-02-03T05:40:28.418Z,2.17
2023-02-03T05:43:50.346Z,1.70
2023-02-03T05:47:12.111Z,1.08
2023-02-03T05:50:36.208Z,1.15
2023-02-03T05:53:59.413Z,2.38
2023-02-03T05:57:22.488Z,1.00
2023-02-03T06:00:44.035Z,1.45
2023-02-03T06:04:06.879Z,2.65
2023-02-03T06:07:28.817Z,2.90
2023-02-03T06:10:50.530Z,2.35
2023-02-03T06:14:13.496Z,2.67
2023-02-03T06:17:36.252Z,2.60
2023-02-03T06:20:57.813Z,2.85
2023-02-03T06:24:19.593Z,2.78
2023-02-03T06:27:42.363Z,2.60
2023-02-03T06:31:05.913Z,2.00
2023-02-03T06:34:27.487Z,1.35
2023-02-03T06:37:49.190Z,1.50
2023-02-03T06:41:10.817Z,2.58
2023-02-03T06:44:32.349Z,2.33
2023-02-03T06:47:55.661Z,1.95
2023-02-03T06:51:17.765Z,1.40
2023-02-03T06:54:39.239Z,1.63
2023-02-03T06:58:01.443Z,1.73
2023-02-03T07:01:23.711Z,1.90
2023-02-03T07:04:46.835Z,2.95
2023-02-03T07:08:09.191Z,4.43
2023-02-03T07:11:31.500Z,3.65
2023-02-03T07:14:53.571Z,4.60
2023-02-03T07:18:25.667Z,3.10
2023-02-03T07:21:59.062Z,4.15
2023-02-03T07:25:23.502Z,4.25
2023-02-03T07:28:45.286Z,8.82
2023-02-03T07:32:07.281Z,10.20
2023-02-03T07:35:29.118Z,6.10
2023-02-03T07:38:52.285Z,4.57
2023-02-03T07:42:14.014Z,2.47
2023-02-03T07:45:36.133Z,3.15
2023-02-03T07:48:57.952Z,2.17
2023-02-03T07:52:21.945Z,2.00
2023-02-03T07:55:45.239Z,1.85
2023-02-03T07:59:07.233Z,1.40
2023-02-03T08:02:28.997Z,2.00
2023-02-03T08:05:50.764Z,4.95
2023-02-03T08:09:12.807Z,3.50
2023-02-03T08:12:36.351Z,2.63
2023-02-03T08:15:58.556Z,1.23
2023-02-03T08:19:20.670Z,1.48
2023-02-03T08:22:42.559Z,1.60
2023-02-03T08:26:04.600Z,2.60
2023-02-03T08:29:28.106Z,3.80
2023-02-03T08:32:55.645Z,2.45
2023-02-03T08:36:17.389Z,3.53
2023-02-03T08:39:39.490Z,5.82
2023-02-03T08:43:01.591Z,5.18
2023-02-03T08:46:25.088Z,3.28
2023-02-03T08:49:47.170Z,5.35
2023-02-03T08:53:09.196Z,2.95
2023-02-03T08:56:31.011Z,5.90
2023-02-03T08:59:52.848Z,7.50
2023-02-03T09:03:16.612Z,6.38
2023-02-03T09:06:38.962Z,5.93
2023-02-03T09:10:01.070Z,3.40
2023-02-03T09:13:23.129Z,2.60
2023-02-03T09:16:45.193Z,3.50
2023-02-03T09:20:13.536Z,5.55
2023-02-03T09:23:35.533Z,2.83
2023-02-03T09:26:58.241Z,3.90
2023-02-03T09:30:20.712Z,3.38
2023-02-03T09:33:43.127Z,4.80
2023-02-03T09:37:06.848Z,2.83
2023-02-03T09:40:34.337Z,4.10
2023-02-03T09:44:02.901Z,2.95
2023-02-03T09:47:28.438Z,6.45
2023-02-03T09:50:51.773Z,10.93
2023-02-03T09:54:20.784Z,6.82
2023-02-03T09:57:48.106Z,3.22
2023-02-03T10:01:16.191Z,4.25
2023-02-03T10:04:43.009Z,5.40
2023-02-03T10:08:13.774Z,3.92
2023-02-03T10:11:57.964Z,4.88
2023-02-03T10:15:49.793Z,5.63
2023-02-03T10:19:20.176Z,4.50
2023-02-03T10:22:47.040Z,3.55
2023-02-03T10:26:14.831Z,3.65
2023-02-03T10:29:43.383Z,3.40
2023-02-03T10:33:12.748Z,3.88
2023-02-03T10:36:44.155Z,4.40
2023-02-03T10:40:07.046Z,2.03
2023-02-03T10:44:09.008Z,3.80
2023-02-03T10:47:36.298Z,3.45
2023-02-03T10:50:59.576Z,2.40
2023-02-03T10:54:30.785Z,3.10
2023-02-03T10:57:53.162Z,1.30
2023-02-03T11:01:17.754Z,2.80
2023-02-03T11:04:40.851Z,1.42
2023-02-03T11:08:03.707Z,1.98
2023-02-03T11:11:27.780Z,1.70
2023-02-03T11:14:51.404Z,2.20
2023-02-03T11:18:49.127Z,2.33
2023-02-03T11:22:13.070Z,2.90
2023-02-03T11:25:35.405Z,1.73
2023-02-03T11:29:00.229Z,1.40
2023-02-03T11:32:26.111Z,2.03
2023-02-03T11:35:57.433Z,2.20
2023-02-03T11:39:26.502Z,1.40
2023-02-03T11:43:02.317Z,2.20
2023-02-03T11:46:24.742Z,2.00
2023-02-03T11:50:14.441Z,1.70
2023-02-03T11:53:57.706Z,1.65
2023-02-03T11:57:35.416Z,3.53
2023-02-03T12:01:06.920Z,3.55
2023-02-03T12:04:44.710Z,2.72
2023-02-03T12:08:19.029Z,1.42
2023-02-03T12:12:02.798Z,1.27
2023-02-03T12:15:40.359Z,1.48
2023-02-03T12:19:15.274Z,1.75
2023-02-03T12:22:48.645Z,2.20
2023-02-03T12:26:20.369Z,2.08
2023-02-03T12:29:47.586Z,3.83
2023-02-03T12:33:18.726Z,2.42
2023-02-03T12:36:45.815Z,2.85
2023-02-03T12:40:18.025Z,2.88
2023-02-03T12:43:43.541Z,2.90
2023-02-03T12:47:14.428Z,2.90
2023-02-03T12:50:41.755Z,2.20
2023-02-03T12:54:09.033Z,1.85
2023-02-03T12:57:35.529Z,7.60
2023-02-03T13:01:02.130Z,5.82
2023-02-03T13:04:30.575Z,2.88
2023-02-03T13:08:01.160Z,8.75
2023-02-03T13:11:28.777Z,8.48
2023-02-03T13:14:54.680Z,9.05
2023-02-03T13:18:26.549Z,14.82
2023-02-03T13:21:49.949Z,16.30
2023-02-03T13:25:21.075Z,27.35
2023-02-03T13:28:58.785Z,32.58
2023-02-03T13:32:34.903Z,29.60
2023-02-03T13:36:12.248Z,22.50
2023-02-03T13:39:48.021Z,16.67
2023-02-03T13:43:28.389Z,11.23
2023-02-03T13:47:00.306Z,8.93
2023-02-03T13:50:25.705Z,10.70
2023-02-03T13:53:50.038Z,6.00
2023-02-03T13:57:23.660Z,8.48
2023-02-03T14:01:08.324Z,7.97
2023-02-03T14:04:58.233Z,10.35
2023-02-03T14:08:52.034Z,5.72
2023-02-03T14:12:34.424Z,3.72
2023-02-03T14:16:24.005Z,3.70
2023-02-03T14:23:40.523Z,4.60
2023-02-03T14:27:05.176Z,9.80
2023-02-03T14:30:29.698Z,7.30
2023-02-03T14:34:12.962Z,5.43
2023-02-03T14:37:36.329Z,5.95
2023-02-03T14:41:01.003Z,3.97
2023-02-03T14:44:37.544Z,6.47
2023-02-03T14:48:15.560Z,10.65
2023-02-03T14:51:56.002Z,14.98
2023-02-03T14:55:41.095Z,15.60
2023-02-03T14:59:06.032Z,13.40
2023-02-03T15:02:31.293Z,16.63
2023-02-03T15:05:56.450Z,10.65
2023-02-03T15:09:26.141Z,6.43
2023-02-03T15:12:50.196Z,5.88
2023-02-03T15:16:19.613Z,5.43
2023-02-03T15:19:43.705Z,4.55
2023-02-03T15:23:20.791Z,8.20
2023-02-03T15:26:48.767Z,9.38
2023-02-03T15:30:17.342Z,9.80
2023-02-03T15:33:40.321Z,9.80
2023-02-03T15:37:07.857Z,8.52
2023-02-03T15:40:38.367Z,9.70
2023-02-03T15:44:08.823Z,11.05
2023-02-03T15:47:35.123Z,17.50
2023-02-03T15:51:00.472Z,20.55
2023-02-03T15:54:30.279Z,17.60
2023-02-03T15:57:52.747Z,15.60
2023-02-03T16:01:20.672Z,9.63
2023-02-03T16:04:42.600Z,6.45
2023-02-03T16:08:30.605Z,6.88
2023-02-03T16:12:19.670Z,5.20
2023-02-03T16:15:42.066Z,8.40
2023-02-03T16:19:07.840Z,9.93
2023-02-03T16:22:32.404Z,10.60
2023-02-03T16:26:05.575Z,8.85
2023-02-03T16:29:48.544Z,7.45
2023-02-03T16:33:36.214Z,6.40
2023-02-03T16:37:17.463Z,6.10
2023-02-03T16:40:57.570Z,5.03
2023-02-03T16:44:37.696Z,3.70
2023-02-03T16:48:17.227Z,29.85
2023-02-03T16:51:41.743Z,56.28
2023-02-03T16:55:05.727Z,53.83
2023-02-03T16:58:28.755Z,22.70
2023-02-03T17:01:51.600Z,36.25
2023-02-03T17:05:13.438Z,26.70
2023-02-03T17:08:35.771Z,19.30
2023-02-03T17:11:59.143Z,14.25
2023-02-03T17:15:21.427Z,12.65
2023-02-03T17:18:43.500Z,19.52
2023-02-03T17:22:05.523Z,18.00
2023-02-03T17:25:27.780Z,22.90
2023-02-03T17:28:51.659Z,28.83
2023-02-03T17:32:15.680Z,22.45
2023-02-03T17:35:37.784Z,9.25
2023-02-03T17:57:05.302Z,7.45
2023-02-03T18:00:27.960Z,6.43
2023-02-03T18:03:52.619Z,10.88
2023-02-03T18:07:14.550Z,14.05
2023-02-03T18:10:37.458Z,10.25
2023-02-03T18:14:00.212Z,12.77
2023-02-03T18:17:22.389Z,12.35
2023-02-03T18:20:45.537Z,36.25
2023-02-03T18:24:08.898Z,14.02
2023-02-03T18:27:31.214Z,20.20
2023-02-03T18:30:53.081Z,9.63
2023-02-03T18:34:14.877Z,6.05
2023-02-03T18:37:38.174Z,7.93
2023-02-03T18:41:00.393Z,7.65
2023-02-03T18:44:22.337Z,5.15
2023-02-03T18:47:44.476Z,6.90
2023-02-03T18:51:09.837Z,6.30
2023-02-03T18:54:33.083Z,9.90
2023-02-03T18:57:55.006Z,8.50
2023-02-03T19:01:25.473Z,5.57
2023-02-03T19:18:33.352Z,4.28
2023-02-03T19:21:55.260Z,5.65
2023-02-03T19:25:17.905Z,5.05
2023-02-03T19:28:40.482Z,4.63
2023-02-03T19:32:02.423Z,4.63
2023-02-03T19:35:25.652Z,4.35
2023-02-03T19:38:47.441Z,3.42
2023-02-03T19:42:09.362Z,4.72
2023-02-03T19:45:31.126Z,3.75
2023-02-03T19:48:52.852Z,2.92
2023-02-03T19:52:15.974Z,4.47
2023-02-03T19:55:38.316Z,3.45
2023-02-03T19:59:00.464Z,3.35
2023-02-03T20:02:22.429Z,4.38
2023-02-03T20:05:44.054Z,2.60
2023-02-03T20:09:07.604Z,2.42
2023-02-03T20:12:30.401Z,3.17
2023-02-03T20:15:52.011Z,5.25
2023-02-03T20:19:14.081Z,6.28
2023-02-03T20:22:36.240Z,4.22
2023-02-03T20:26:00.170Z,5.82
2023-02-03T20:29:22.308Z,5.75
2023-02-03T20:32:45.301Z,5.95
2023-02-03T20:36:09.499Z,5.63
2023-02-03T20:39:32.798Z,3.40
2023-02-03T20:42:57.248Z,3.85
2023-02-03T20:46:20.986Z,3.22
2023-02-03T20:49:43.620Z,2.92
2023-02-03T20:53:09.080Z,3.42
2023-02-03T20:56:30.972Z,4.28
2023-02-03T20:59:54.288Z,3.42
2023-02-03T21:03:36.363Z,3.70
2023-02-03T21:06:58.623Z,2.20
2023-02-03T21:10:22.453Z,2.75
2023-02-03T21:13:45.790Z,2.53
2023-02-03T21:17:17.181Z,3.95
2023-02-03T21:20:39.464Z,3.60
2023-02-03T21:24:01.447Z,4.07
2023-02-03T21:27:30.420Z,4.93
2023-02-03T21:30:52.566Z,4.07
2023-02-03T21:34:27.108Z,3.85
2023-02-03T21:37:49.244Z,4.72
2023-02-03T21:41:17.363Z,4.68
2023-02-03T21:44:39.409Z,4.22
2023-02-03T21:48:02.194Z,5.57
2023-02-03T21:51:28.075Z,5.15
2023-02-03T21:54:50.223Z,4.68
2023-02-03T21:58:23.686Z,3.70
2023-02-03T22:01:45.359Z,2.92
2023-02-03T22:05:13.619Z,2.40
2023-02-03T22:08:39.299Z,2.93
2023-02-03T22:12:01.973Z,3.03
2023-02-03T22:15:23.880Z,3.22
2023-02-03T22:18:46.400Z,3.90
2023-02-03T22:22:08.041Z,3.97
2023-02-03T22:25:31.461Z,4.18
2023-02-03T22:28:54.413Z,3.20
2023-02-03T22:32:16.585Z,3.35
2023-02-03T22:35:38.419Z,2.88
2023-02-03T22:39:00.215Z,2.58
2023-02-03T22:42:23.828Z,1.98
2023-02-03T22:45:46.125Z,3.78
2023-02-03T22:49:08.108Z,4.10
2023-02-03T22:52:30.009Z,3.85
2023-02-03T22:55:52.194Z,3.60
2023-02-03T22:59:15.385Z,3.70
2023-02-03T23:02:37.173Z,5.25
2023-02-03T23:05:59.412Z,6.90
2023-02-03T23:09:21.571Z,4.30
2023-02-03T23:12:43.662Z,7.88
2023-02-03T23:16:07.452Z,8.23
2023-02-03T23:19:29.339Z,5.30
2023-02-03T23:22:51.342Z,4.25
2023-02-03T23:26:13.101Z,4.78
2023-02-03T23:29:37.597Z,3.00
2023-02-03T23:33:00.562Z,3.03
2023-02-03T23:36:21.842Z,2.63
2023-02-03T23:39:43.766Z,3.00
2023-02-03T23:43:05.484Z,2.97
2023-02-03T23:46:27.722Z,2.67
2023-02-03T23:49:50.832Z,3.05
2023-02-03T23:53:12.883Z,2.72
2023-02-03T23:56:34.750Z,2.42
2023-02-03T23:59:56.504Z,3.03
